EDHI/XFW METAR and TAF weather

Enter ICAO airport designator
Station Type Date Time Source
EDHI METAR 2020/07/10 16:50 UTC NOAA

EDHI 101650Z 29012KT 9999 FEW028 15/10 Q1014


Station Type Date Time Source
EDHI Decoded METAR 2020/07/10 16:50 UTC NOAA

Hamburg-Finkenwerder, Germany (EDHI) 53-32N 009-50E 13M
Jul 10, 2020 - 12:50 PM EDT / 2020.07.10 1650 UTC
Wind: from the WNW (290 degrees) at 14 MPH (12 KT):0
Visibility: greater than 7 mile(s):0
Sky conditions: mostly clear
Temperature: 59 F (15 C)
Dew Point: 50 F (10 C)
Relative Humidity: 72%
Pressure (altimeter): 29.94 in. Hg (1014 hPa)
ob: EDHI 101650Z 29012KT 9999 FEW028 15/10 Q1014
cycle: 17

Station Type Date Time Source
EDHI TAF 2010/02/22 14:20 UTC NOAA

METAR EDHI 221420Z 17005KT 9999 BKN030 05/02 Q0989

Example: see airport list